Time;durP1;ratioP1;P1;durP2;ratioP2;P2;SDS_P1;SDS_P2;PMS_P1;PMS_P2;Temp;Humidity;BMP_temperature;BMP_pressure;BME280_temperature;BME280_humidity;BME280_pressure;Samples;Min_cycle;Max_cycle;Signal;HPM_P1;HPM_P2
2023/03/07 00:01:33;;;;;;;10.50;1.77;;;;;;;13.19;86.11;99701.94;10296908;28;96959;-75
2023/03/07 00:06:37;;;;;;;6.25;1.50;;;;;;;13.22;86.06;99713.19;10297712;28;96660;-76
2023/03/07 00:11:41;;;;;;;4.78;1.48;;;;;;;13.18;86.12;99718.72;10309716;28;97396;-76
2023/03/07 00:16:44;;;;;;;6.10;1.17;;;;;;;13.21;85.32;99722.03;10296895;28;96894;-75
2023/03/07 00:21:48;;;;;;;8.35;1.23;;;;;;;13.25;84.38;99717.41;10295472;28;96671;-76
2023/03/07 00:26:51;;;;;;;5.57;1.15;;;;;;;13.20;84.48;99711.53;10295938;28;97987;-75
2023/03/07 00:31:55;;;;;;;4.80;1.33;;;;;;;13.19;84.04;99721.25;10296650;28;97497;-75
2023/03/07 00:36:59;;;;;;;3.67;1.10;;;;;;;13.17;83.89;99720.50;10296210;28;96677;-75
2023/03/07 00:42:03;;;;;;;4.70;1.60;;;;;;;13.17;83.66;99715.22;10295734;28;96930;-75
2023/03/07 00:47:06;;;;;;;5.15;1.40;;;;;;;13.15;84.01;99716.25;10307418;28;96764;-76
2023/03/07 00:52:11;;;;;;;4.90;1.58;;;;;;;13.05;84.58;99723.03;10337005;28;96813;-76
2023/03/07 00:57:14;;;;;;;6.55;1.15;;;;;;;12.98;84.76;99726.94;10336970;28;96683;-75
2023/03/07 01:02:17;;;;;;;3.92;1.00;;;;;;;12.96;85.00;99732.31;10336342;28;96637;-75
2023/03/07 01:07:22;;;;;;;4.50;1.00;;;;;;;12.94;84.90;99733.34;10302277;28;97021;-75
2023/03/07 01:12:25;;;;;;;4.22;1.10;;;;;;;12.87;85.23;99742.53;10300705;28;96697;-75
2023/03/07 01:17:28;;;;;;;5.88;1.20;;;;;;;12.84;85.33;99743.59;10301757;28;97172;-75
2023/03/07 01:22:33;;;;;;;4.28;0.93;;;;;;;12.76;86.01;99739.69;10302021;28;96942;-75
2023/03/07 01:27:36;;;;;;;10.65;1.70;;;;;;;12.68;85.90;99739.25;10301604;28;96662;-75
2023/03/07 01:32:39;;;;;;;11.43;2.10;;;;;;;12.68;84.02;99741.88;10301498;28;96849;-75
2023/03/07 01:37:44;;;;;;;9.77;2.30;;;;;;;12.64;83.73;99751.75;10301503;28;96735;-75
2023/03/07 01:42:47;;;;;;;14.25;2.30;;;;;;;12.66;84.36;99755.19;10300460;28;97048;-75
2023/03/07 01:47:50;;;;;;;11.48;2.38;;;;;;;12.69;82.72;99755.00;10301099;28;96839;-75
2023/03/07 01:53:00;;;;;;;16.83;3.42;;;;;;;12.68;82.06;99755.94;10300626;28;96632;-75
2023/03/07 01:58:06;;;;;;;16.23;2.80;;;;;;;12.70;81.17;99762.00;10300759;28;97007;-75
2023/03/07 02:03:18;;;;;;;16.25;3.45;;;;;;;12.74;80.63;99768.78;10299392;28;97055;-75
2023/03/07 02:08:27;;;;;;;12.85;2.88;;;;;;;12.67;80.84;99772.69;10299955;28;97076;-76
2023/03/07 02:13:30;;;;;;;22.13;4.10;;;;;;;12.68;80.49;99779.69;10323286;28;96737;-75
2023/03/07 02:18:38;;;;;;;14.95;3.13;;;;;;;12.73;80.27;99788.22;10340730;28;96956;-75
2023/03/07 02:23:53;;;;;;;19.60;3.30;;;;;;;12.75;79.92;99801.31;10340860;28;96573;-75
2023/03/07 02:28:59;;;;;;;20.57;3.10;;;;;;;12.76;79.07;99803.88;10340361;28;97338;-75
2023/03/07 02:34:02;;;;;;;15.80;3.13;;;;;;;12.74;80.05;99805.75;10340792;28;96750;-75
2023/03/07 02:39:06;;;;;;;18.90;3.95;;;;;;;12.73;79.95;99795.28;10340953;28;96707;-75
2023/03/07 02:44:11;;;;;;;19.40;3.33;;;;;;;12.74;79.92;99797.00;10311616;28;96599;-75
2023/03/07 02:49:14;;;;;;;13.05;2.88;;;;;;;12.74;80.26;99789.06;10336979;28;96537;-75
2023/03/07 02:54:17;;;;;;;19.48;3.45;;;;;;;12.83;79.57;99801.75;10338941;28;96670;-75
2023/03/07 02:59:22;;;;;;;19.73;3.42;;;;;;;12.76;79.85;99780.13;10339717;28;96646;-75
2023/03/07 03:04:25;;;;;;;17.77;3.30;;;;;;;12.81;80.12;99791.25;10338761;28;96764;-75
2023/03/07 03:09:28;;;;;;;22.20;3.90;;;;;;;12.84;79.97;99784.97;10339269;28;96696;-75
2023/03/07 03:14:33;;;;;;;17.58;3.38;;;;;;;12.92;80.04;99788.88;10324697;28;96916;-75
2023/03/07 03:19:36;;;;;;;13.40;3.25;;;;;;;12.91;79.87;99787.19;10298379;28;96609;-75
2023/03/07 03:24:40;;;;;;;16.90;3.53;;;;;;;12.77;79.64;99783.63;10297989;28;96843;-75
2023/03/07 03:29:45;;;;;;;22.33;3.63;;;;;;;12.68;79.79;99782.34;10298407;28;96868;-75
2023/03/07 03:34:48;;;;;;;16.60;3.72;;;;;;;12.66;79.90;99781.56;10297865;28;97412;-75
2023/03/07 03:39:53;;;;;;;17.60;3.25;;;;;;;12.68;79.03;99781.47;10297687;28;96941;-75
2023/03/07 03:44:57;;;;;;;17.35;3.13;;;;;;;12.70;79.23;99780.47;10330354;28;96731;-75
2023/03/07 03:50:01;;;;;;;17.88;3.35;;;;;;;12.79;79.20;99771.19;10337756;28;96812;-75
2023/03/07 03:55:04;;;;;;;14.80;2.78;;;;;;;12.73;79.13;99777.66;10317924;28;96631;-75
2023/03/07 04:00:13;;;;;;;23.63;3.08;;;;;;;12.67;79.97;99775.34;10297115;28;96710;-75
2023/03/07 04:05:17;;;;;;;11.07;2.97;;;;;;;12.71;79.76;99776.03;10296592;28;97042;-75
2023/03/07 04:10:20;;;;;;;19.55;3.08;;;;;;;12.70;79.78;99776.97;10297196;28;97330;-75
2023/03/07 04:15:24;;;;;;;15.98;3.38;;;;;;;12.70;79.79;99784.88;10317879;28;96627;-75
2023/03/07 04:20:28;;;;;;;17.98;3.33;;;;;;;12.63;80.35;99776.44;10338385;28;96894;-75
2023/03/07 04:25:32;;;;;;;16.85;3.55;;;;;;;12.63;79.86;99783.50;10337358;28;98169;-75
2023/03/07 04:30:36;;;;;;;17.27;3.57;;;;;;;12.68;79.83;99779.69;10304582;28;96513;-76
2023/03/07 04:35:40;;;;;;;21.05;3.45;;;;;;;12.69;79.83;99791.94;10295453;28;96694;-76
2023/03/07 04:40:43;;;;;;;19.63;3.05;;;;;;;12.73;79.54;99788.22;10297582;28;96871;-75
2023/03/07 04:45:47;;;;;;;21.80;3.72;;;;;;;12.72;79.61;99794.44;10303451;28;96954;-75
2023/03/07 04:50:52;;;;;;;16.90;3.10;;;;;;;12.78;79.33;99798.50;10302673;28;97410;-76
2023/03/07 04:55:58;;;;;;;15.83;2.77;;;;;;;12.77;79.84;99795.03;10302534;28;96613;-75
2023/03/07 05:01:04;;;;;;;20.38;3.28;;;;;;;12.76;79.71;99793.31;10302766;28;96586;-75
2023/03/07 05:06:11;;;;;;;24.10;3.75;;;;;;;12.77;79.07;99810.00;10302294;28;96609;-75
2023/03/07 05:11:14;;;;;;;16.58;3.22;;;;;;;12.77;79.21;99800.31;10302126;28;96714;-76
2023/03/07 05:16:18;;;;;;;13.57;2.80;;;;;;;12.79;79.71;99811.63;10329993;28;97537;-75
2023/03/07 05:21:22;;;;;;;17.10;3.38;;;;;;;12.78;79.11;99812.56;10341913;28;96478;-75
2023/03/07 05:26:25;;;;;;;14.48;2.88;;;;;;;12.75;79.54;99823.31;10341815;28;96727;-75
2023/03/07 05:31:29;;;;;;;16.35;2.80;;;;;;;12.75;79.01;99812.75;10342742;28;96699;-75
2023/03/07 05:36:32;;;;;;;13.27;2.90;;;;;;;12.65;79.51;99816.84;10341682;28;96730;-75
2023/03/07 05:41:36;;;;;;;18.85;2.90;;;;;;;12.63;79.52;99823.94;10341662;28;96981;-75
2023/03/07 05:46:40;;;;;;;17.13;3.38;;;;;;;12.53;80.02;99828.84;10342011;28;96642;-75
2023/03/07 05:51:43;;;;;;;15.10;3.30;;;;;;;12.46;80.28;99822.22;10340067;28;96590;-75
2023/03/07 05:56:46;;;;;;;21.15;3.47;;;;;;;12.42;80.20;99825.09;10300480;28;96886;-75
2023/03/07 06:01:51;;;;;;;17.08;3.30;;;;;;;12.35;80.64;99836.91;10301141;28;97077;-75
2023/03/07 06:06:54;;;;;;;20.30;3.17;;;;;;;12.38;80.74;99844.66;10300257;28;97200;-75
2023/03/07 06:11:57;;;;;;;14.57;3.22;;;;;;;12.34;81.18;99854.53;10300034;28;96714;-75
2023/03/07 06:17:03;;;;;;;17.48;3.10;;;;;;;12.38;80.18;99865.78;10299070;28;96767;-75
2023/03/07 06:22:07;;;;;;;16.42;3.40;;;;;;;12.26;80.81;99867.28;10299980;28;96553;-75
2023/03/07 06:27:10;;;;;;;15.23;3.00;;;;;;;12.13;81.58;99865.38;10299922;28;96834;-76
2023/03/07 06:32:15;;;;;;;17.48;3.60;;;;;;;12.23;81.45;99861.31;10299514;28;96627;-75
2023/03/07 06:37:18;;;;;;;21.83;3.78;;;;;;;12.32;80.83;99877.50;10299142;28;96722;-75
2023/03/07 06:42:22;;;;;;;15.00;3.13;;;;;;;12.28;81.26;99878.63;10298835;28;96941;-75
2023/03/07 06:47:26;;;;;;;22.88;4.53;;;;;;;12.40;81.52;99890.31;10307002;28;96709;-75
2023/03/07 06:52:29;;;;;;;15.60;3.17;;;;;;;12.31;81.27;99889.00;10340836;28;96707;-75
2023/03/07 06:57:33;;;;;;;16.23;3.28;;;;;;;12.37;81.79;99885.19;10339819;28;96625;-75
2023/03/07 07:02:38;;;;;;;14.95;2.75;;;;;;;12.41;81.70;99892.84;10314089;28;96654;-75
2023/03/07 07:07:41;;;;;;;20.25;3.50;;;;;;;12.42;82.33;99894.56;10296925;28;96653;-75
2023/03/07 07:12:44;;;;;;;20.33;3.30;;;;;;;12.43;82.25;99914.75;10297973;28;96905;-76
2023/03/07 07:17:50;;;;;;;19.58;3.42;;;;;;;12.31;83.22;99899.56;10316052;28;96955;-76
2023/03/07 07:22:53;;;;;;;18.38;3.25;;;;;;;12.26;83.47;99920.03;10339208;28;97433;-75
2023/03/07 07:27:56;;;;;;;15.80;3.30;;;;;;;12.24;82.86;99921.91;10339210;28;96815;-76
2023/03/07 07:33:01;;;;;;;21.63;3.25;;;;;;;12.18;83.90;99934.56;10338835;28;96640;-76
2023/03/07 07:38:04;;;;;;;19.40;3.30;;;;;;;12.21;83.82;99937.03;10337642;28;96783;-76
2023/03/07 07:43:07;;;;;;;16.58;3.13;;;;;;;12.18;83.70;99943.34;10338917;28;96866;-76
2023/03/07 07:48:11;;;;;;;16.92;3.20;;;;;;;12.27;84.28;99953.41;10305602;28;96688;-75
2023/03/07 07:53:16;;;;;;;13.18;3.00;;;;;;;12.34;83.80;99954.78;10318648;28;96622;-75
2023/03/07 07:58:19;;;;;;;15.02;2.97;;;;;;;12.50;83.57;99966.25;10336818;28;96739;-75
2023/03/07 08:03:24;;;;;;;18.77;3.97;;;;;;;12.54;83.83;99969.59;10337935;28;96685;-76
2023/03/07 08:08:27;;;;;;;19.67;3.00;;;;;;;12.58;83.66;99979.91;10336936;28;97208;-76
2023/03/07 08:13:31;;;;;;;14.52;2.97;;;;;;;12.55;84.32;99987.13;10338320;28;97024;-76
2023/03/07 08:18:36;;;;;;;12.10;2.67;;;;;;;12.52;84.37;99996.09;10319515;28;96555;-75
2023/03/07 08:23:39;;;;;;;22.23;3.15;;;;;;;12.50;84.48;99999.72;10303740;28;96671;-76
2023/03/07 08:28:42;;;;;;;16.40;3.30;;;;;;;12.63;84.56;100007.88;10304067;28;96785;-75
2023/03/07 08:33:48;;;;;;;20.92;3.20;;;;;;;12.68;84.15;100019.06;10304549;28;96809;-75
2023/03/07 08:38:52;;;;;;;24.10;3.78;;;;;;;12.70;84.26;100017.22;10303090;28;96771;-76
2023/03/07 08:43:55;;;;;;;14.30;3.75;;;;;;;13.72;83.61;100013.38;10303351;28;96862;-75
2023/03/07 08:48:59;;;;;;;7.95;2.20;;;;;;;13.73;83.50;100023.03;10301550;28;96790;-76
2023/03/07 08:54:03;;;;;;;12.15;3.20;;;;;;;13.35;83.79;100017.19;10302658;28;96680;-75
2023/03/07 08:59:06;;;;;;;17.17;3.75;;;;;;;13.15;84.25;100023.56;10302848;28;96834;-76
2023/03/07 09:04:11;;;;;;;12.15;2.70;;;;;;;14.74;81.65;100029.38;10302391;28;96853;-75
2023/03/07 09:09:14;;;;;;;12.13;2.53;;;;;;;16.45;77.62;100026.38;10301801;28;96634;-76
2023/03/07 09:14:17;;;;;;;6.85;2.42;;;;;;;16.84;76.11;100029.81;10302015;28;97117;-76
2023/03/07 09:19:23;;;;;;;10.13;2.88;;;;;;;16.28;76.14;100045.19;10332265;28;96867;-76
2023/03/07 09:24:30;;;;;;;10.43;2.90;;;;;;;16.37;75.71;100041.94;10343804;28;96585;-76
2023/03/07 09:29:33;;;;;;;12.70;3.20;;;;;;;16.85;73.13;100042.19;10342033;28;96876;-76
2023/03/07 09:34:38;;;;;;;9.77;2.67;;;;;;;16.47;73.40;100043.91;10341706;28;96758;-76
2023/03/07 09:39:41;;;;;;;11.45;2.67;;;;;;;16.63;72.48;100041.09;10341225;28;96827;-76
2023/03/07 09:45:01;;;;;;;17.52;3.70;;;;;;;16.29;73.86;100042.44;10342133;28;97094;-76
2023/03/07 09:50:13;;;;;;;12.90;3.70;;;;;;;16.03;74.44;100040.66;10330094;28;96823;-76
2023/03/07 09:55:19;;;;;;;14.80;3.22;;;;;;;15.52;75.63;100036.91;10300425;28;97330;-76
2023/03/07 10:00:26;;;;;;;11.07;2.83;;;;;;;16.28;74.18;100031.94;10300025;28;96664;-76
2023/03/07 10:05:35;;;;;;;10.57;2.72;;;;;;;18.46;68.78;100044.69;10300198;28;96808;-76
2023/03/07 10:10:43;;;;;;;12.93;3.00;;;;;;;18.05;68.12;100042.44;10300514;28;96726;-76
2023/03/07 10:15:48;;;;;;;12.75;3.10;;;;;;;17.02;68.23;100041.00;10300569;28;96811;-76
2023/03/07 10:21:00;;;;;;;12.27;2.88;;;;;;;16.28;68.24;100026.63;10330233;28;97538;-76
2023/03/07 10:26:10;;;;;;;11.93;3.28;;;;;;;16.98;66.29;100031.56;10339705;28;96730;-76
2023/03/07 10:31:22;;;;;;;14.65;3.13;;;;;;;17.55;64.32;100024.84;10339876;28;96608;-76
2023/03/07 10:36:37;;;;;;;10.95;2.75;;;;;;;17.24;63.09;100027.06;10340377;28;96571;-76
2023/03/07 10:41:41;;;;;;;13.75;3.85;;;;;;;16.76;65.39;100026.00;10338953;28;96839;-76
2023/03/07 10:46:45;;;;;;;15.75;3.22;;;;;;;16.94;65.03;100038.03;10332611;28;97040;-76
2023/03/07 10:52:03;;;;;;;13.35;4.25;;;;;;;16.87;65.15;100039.41;10299015;28;96694;-76
2023/03/07 10:57:09;;;;;;;13.32;3.58;;;;;;;16.21;66.31;100043.91;10298761;28;96842;-76
2023/03/07 11:02:31;;;;;;;14.30;4.05;;;;;;;15.73;68.09;100048.81;10299137;28;97086;-76
2023/03/07 11:07:37;;;;;;;14.00;3.42;;;;;;;15.55;67.70;100047.31;10299101;28;96617;-76
2023/03/07 11:12:46;;;;;;;17.23;3.97;;;;;;;15.39;68.17;100045.72;10298195;28;97068;-76
2023/03/07 11:17:50;;;;;;;14.95;3.63;;;;;;;15.23;68.58;100056.41;10304695;28;97037;-76
2023/03/07 11:23:18;;;;;;;15.63;3.73;;;;;;;15.07;69.38;100068.00;10338154;28;96894;-76
2023/03/07 11:28:27;;;;;;;15.07;4.03;;;;;;;14.85;71.74;100081.72;10339012;28;96649;-75
2023/03/07 11:33:45;;;;;;;14.45;3.50;;;;;;;14.37;76.07;100111.91;10322906;28;96659;-76
2023/03/07 11:39:10;;;;;;;15.80;4.70;;;;;;;14.31;77.13;100106.13;10297299;28;96618;-76
2023/03/07 11:44:23;;;;;;;8.38;2.97;;;;;;;14.54;76.13;100108.31;10296881;28;97139;-76
2023/03/07 11:49:43;;;;;;;10.00;3.08;;;;;;;15.00;75.00;100104.63;10305801;28;96616;-75
2023/03/07 11:55:01;;;;;;;11.27;3.30;;;;;;;15.40;74.37;100103.09;10297255;28;97555;-75
2023/03/07 12:00:23;;;;;;;6.95;2.80;;;;;;;16.38;72.02;100104.72;10297810;28;96692;-76
2023/03/07 12:05:38;;;;;;;6.75;2.80;;;;;;;19.40;65.30;100099.63;10297009;28;96557;-75
2023/03/07 12:10:57;;;;;;;8.20;2.25;;;;;;;18.41;65.90;100102.78;10296718;28;96823;-75
2023/03/07 12:16:10;;;;;;;10.85;2.90;;;;;;;17.59;65.97;100108.78;10296176;28;96822;-75
2023/03/07 12:21:24;;;;;;;11.02;3.17;;;;;;;16.87;66.23;100088.13;10295914;28;96685;-76
2023/03/07 12:26:42;;;;;;;12.35;3.65;;;;;;;16.72;66.30;100089.13;10296040;28;96734;-76
2023/03/07 12:31:48;;;;;;;14.73;3.15;;;;;;;16.68;66.48;100087.66;10296311;28;97008;-76
2023/03/07 12:36:55;;;;;;;9.52;3.20;;;;;;;16.84;66.96;100079.50;10296681;28;97029;-76
2023/03/07 12:42:05;;;;;;;9.77;3.30;;;;;;;16.83;66.97;100080.44;10295013;28;97600;-76
2023/03/07 12:47:18;;;;;;;11.20;2.67;;;;;;;16.33;68.66;100078.47;10295774;28;97434;-75
2023/03/07 12:52:30;;;;;;;10.27;2.90;;;;;;;16.17;69.75;100075.09;10296412;28;96805;-76
2023/03/07 12:57:40;;;;;;;8.65;3.22;;;;;;;16.01;70.72;100070.91;10303392;28;96749;-76
2023/03/07 13:02:49;;;;;;;10.18;2.58;;;;;;;15.61;71.42;100069.94;10340123;28;96684;-76
2023/03/07 13:07:54;;;;;;;11.90;2.92;;;;;;;15.57;71.59;100058.69;10342158;28;96704;-76
2023/03/07 13:12:58;;;;;;;9.50;2.63;;;;;;;15.54;72.22;100052.72;10343079;28;97080;-75
2023/03/07 13:18:02;;;;;;;9.65;2.58;;;;;;;16.51;70.90;100042.78;10342297;28;96779;-75
2023/03/07 13:23:27;;;;;;;8.18;2.45;;;;;;;17.00;68.58;100018.97;10343026;28;96641;-76
2023/03/07 13:28:39;;;;;;;;;;;;;;;17.26;68.83;100012.69;10343193;28;96677;-76
2023/03/07 13:33:43;;;;;;;11.50;3.60;;;;;;;16.73;68.15;100003.16;10316641;28;96811;-76
2023/03/07 13:38:46;;;;;;;11.43;2.53;;;;;;;16.47;68.61;99988.16;10301319;28;96967;-75
2023/03/07 13:44:02;;;;;;;10.57;3.13;;;;;;;16.55;69.15;99992.94;10301417;28;96608;-76
2023/03/07 13:49:07;;;;;;;12.93;3.45;;;;;;;16.57;68.77;99993.66;10312837;28;96812;-76
2023/03/07 13:54:11;;;;;;;;;;;;;;;16.25;68.90;99981.69;10342464;28;96612;-76
2023/03/07 13:59:26;;;;;;;11.88;2.58;;;;;;;16.18;68.71;99983.91;10340746;28;96786;-76
2023/03/07 14:04:30;;;;;;;;;;;;;;;15.89;69.49;99969.06;10341973;28;96600;-77
2023/03/07 14:09:46;;;;;;;9.43;2.15;;;;;;;16.13;68.71;99963.94;10300081;28;96844;-76
2023/03/07 14:15:09;;;;;;;10.65;3.08;;;;;;;16.30;68.36;99974.25;10299751;28;96881;-75
2023/03/07 14:20:20;;;;;;;12.20;3.08;;;;;;;18.04;64.01;99959.03;10299585;28;97038;-76
2023/03/07 14:25:26;;;;;;;11.05;3.35;;;;;;;17.67;64.10;99949.44;10330669;28;97042;-76
2023/03/07 14:30:33;;;;;;;12.68;2.90;;;;;;;17.46;64.55;99950.09;10340442;28;96912;-76
2023/03/07 14:35:39;;;;;;;9.30;2.92;;;;;;;17.11;64.88;99955.28;10341489;28;96612;-76
2023/03/07 14:40:54;;;;;;;15.18;3.47;;;;;;;16.81;64.68;99968.91;10339048;28;96877;-76
2023/03/07 14:46:07;;;;;;;9.30;3.50;;;;;;;16.67;65.42;99963.72;10340413;28;96685;-76
2023/03/07 14:51:15;;;;;;;12.30;4.22;;;;;;;16.71;65.12;99964.34;10318992;28;96593;-75
2023/03/07 14:56:22;;;;;;;9.27;3.50;;;;;;;16.90;64.54;99954.13;10299228;28;96623;-75
2023/03/07 15:01:33;;;;;;;9.15;3.15;;;;;;;17.04;63.88;99960.19;10298901;28;96719;-75
2023/03/07 15:06:43;;;;;;;14.35;3.53;;;;;;;16.91;62.58;99961.16;10298595;28;96960;-76
2023/03/07 15:11:52;;;;;;;12.52;3.72;;;;;;;16.87;63.93;99960.53;10298223;28;96866;-75
2023/03/07 15:17:01;;;;;;;12.18;3.60;;;;;;;16.72;64.22;99942.97;10298749;28;96650;-76
2023/03/07 15:22:12;;;;;;;9.27;2.75;;;;;;;16.62;64.01;99939.28;10297907;28;96815;-76
2023/03/07 15:27:21;;;;;;;14.45;3.97;;;;;;;16.57;64.19;99948.50;10298238;28;96902;-76
2023/03/07 15:32:34;;;;;;;11.63;4.20;;;;;;;16.48;64.23;99957.97;10298299;28;96745;-76
2023/03/07 15:37:52;;;;;;;13.20;4.97;;;;;;;16.53;64.34;99955.00;10297613;28;96761;-75
2023/03/07 15:42:56;;;;;;;17.85;5.10;;;;;;;16.59;63.80;99957.22;10296088;28;96764;-76
2023/03/07 15:48:02;;;;;;;;;;;;;;;16.59;62.87;99947.47;10300853;28;96655;-76
2023/03/07 15:53:09;;;;;;;13.70;4.95;;;;;;;16.85;62.57;99954.47;10338316;28;96715;-75
2023/03/07 15:58:14;;;;;;;18.15;4.80;;;;;;;16.80;61.54;99947.78;10338074;28;96719;-76
2023/03/07 16:03:25;;;;;;;13.48;4.43;;;;;;;16.75;61.70;99936.63;10337998;28;96756;-75
2023/03/07 16:08:28;;;;;;;12.75;5.25;;;;;;;16.71;61.70;99938.63;10297532;28;96833;-76
2023/03/07 16:13:35;;;;;;;12.00;4.80;;;;;;;16.71;62.02;99935.13;10296581;28;96522;-76
2023/03/07 16:18:42;;;;;;;13.73;5.15;;;;;;;16.69;62.00;99927.25;10297015;28;96730;-76
2023/03/07 16:23:46;;;;;;;10.65;5.05;;;;;;;16.90;61.93;99949.69;10297370;28;96856;-75
2023/03/07 16:28:49;;;;;;;15.40;5.20;;;;;;;17.23;60.82;99930.47;10296430;28;96834;-76
2023/03/07 16:33:54;;;;;;;15.15;5.88;;;;;;;17.11;61.65;99917.22;10295343;28;96558;-76
2023/03/07 16:38:58;;;;;;;15.65;5.90;;;;;;;17.05;61.82;99914.03;10303381;28;96678;-76
2023/03/07 16:44:01;;;;;;;13.68;5.00;;;;;;;17.09;61.57;99906.69;10302750;28;96778;-76
2023/03/07 16:49:06;;;;;;;14.70;5.70;;;;;;;16.98;61.77;99911.94;10303050;28;96665;-75
2023/03/07 16:54:09;;;;;;;;;;;;;;;17.23;62.42;99930.47;10338142;28;96627;-75
2023/03/07 16:59:14;;;;;;;15.07;5.05;;;;;;;17.20;62.21;99919.22;10306024;28;96733;-75
2023/03/07 17:04:19;;;;;;;13.80;4.63;;;;;;;17.00;62.46;99917.97;10302464;28;96669;-75
2023/03/07 17:09:22;;;;;;;12.15;4.43;;;;;;;16.96;62.51;99906.69;10302809;28;96798;-76
2023/03/07 17:14:25;;;;;;;13.98;5.50;;;;;;;17.00;62.88;99920.63;10302689;28;96761;-76
2023/03/07 17:19:32;;;;;;;17.90;5.82;;;;;;;16.97;63.56;99916.41;10302470;28;96771;-76
2023/03/07 17:24:35;;;;;;;16.05;5.90;;;;;;;16.91;63.78;99929.28;10300848;28;96659;-76
2023/03/07 17:29:41;;;;;;;17.00;6.28;;;;;;;16.87;62.53;99904.72;10310405;28;97367;-76
2023/03/07 17:34:46;;;;;;;15.98;5.50;;;;;;;16.93;64.42;99898.09;10342735;28;96651;-76
2023/03/07 17:39:50;;;;;;;15.75;5.97;;;;;;;16.74;63.80;99921.66;10341852;28;96702;-76
2023/03/07 17:44:53;;;;;;;8.20;3.75;;;;;;;16.54;61.87;99904.44;10342353;28;96584;-76
2023/03/07 17:49:58;;;;;;;9.55;4.00;;;;;;;16.46;59.80;99911.22;10340377;28;96843;-76
2023/03/07 17:55:02;;;;;;;9.00;3.50;;;;;;;16.38;58.97;99917.03;10342153;28;96624;-76
2023/03/07 18:00:10;;;;;;;8.75;3.67;;;;;;;16.31;58.83;99915.75;10342721;28;97402;-76
2023/03/07 18:05:16;;;;;;;6.53;2.90;;;;;;;16.32;58.41;99905.97;10319767;28;96705;-75
2023/03/07 18:10:21;;;;;;;5.90;2.72;;;;;;;16.32;58.90;99908.63;10299932;28;96685;-76
2023/03/07 18:15:26;;;;;;;;;;;;;;;16.23;58.29;99909.25;10299512;28;97035;-76
2023/03/07 18:20:31;;;;;;;8.73;3.30;;;;;;;16.26;58.87;99909.03;10300441;28;96731;-76
2023/03/07 18:25:34;;;;;;;8.55;3.65;;;;;;;16.22;60.83;99904.91;10299456;28;97202;-75
2023/03/07 18:30:38;;;;;;;10.35;3.92;;;;;;;16.11;61.47;99908.28;10299426;28;96812;-76
2023/03/07 18:35:42;;;;;;;8.30;3.85;;;;;;;16.03;61.80;99915.06;10299450;28;96836;-76
2023/03/07 18:40:46;;;;;;;;;;;;;;;15.92;61.76;99905.16;10299758;28;96670;-76
2023/03/07 18:45:50;;;;;;;13.70;4.78;;;;;;;15.95;63.30;99902.31;10299275;28;96793;-75
2023/03/07 18:50:59;;;;;;;15.88;8.18;;;;;;;15.85;61.27;99903.88;10313209;28;96714;-76
2023/03/07 18:56:03;;;;;;;22.13;11.70;;;;;;;15.88;61.75;99912.47;10319876;28;96596;-75
2023/03/07 19:01:12;;;;;;;51.22;35.13;;;;;;;15.71;62.28;99918.06;10297027;28;96622;-75
2023/03/07 19:06:18;;;;;;;31.73;19.50;;;;;;;15.77;62.45;99901.72;10297872;28;97769;-75
2023/03/07 19:11:21;;;;;;;18.65;12.13;;;;;;;15.70;63.80;99889.81;10298299;28;97559;-76
2023/03/07 19:16:26;;;;;;;22.10;11.55;;;;;;;15.62;64.46;99884.19;10298426;28;96629;-76
2023/03/07 19:21:32;;;;;;;24.75;15.50;;;;;;;15.46;64.93;99888.78;10297893;28;97250;-75
2023/03/07 19:26:35;;;;;;;16.67;9.02;;;;;;;15.18;66.85;99894.13;10332691;28;97429;-76
2023/03/07 19:31:39;;;;;;;17.25;9.63;;;;;;;15.13;65.88;99884.78;10337972;28;96787;-75
2023/03/07 19:36:45;;;;;;;14.13;8.48;;;;;;;15.18;65.43;99890.63;10338731;28;96677;-76
2023/03/07 19:41:48;;;;;;;16.13;8.60;;;;;;;14.90;67.34;99891.53;10338614;28;96742;-76
2023/03/07 19:46:51;;;;;;;16.42;8.23;;;;;;;14.72;67.94;99882.09;10337629;28;96610;-75
2023/03/07 19:51:56;;;;;;;18.92;9.15;;;;;;;14.65;67.47;99878.09;10313720;28;96662;-76
2023/03/07 19:56:59;;;;;;;18.02;8.45;;;;;;;14.54;68.08;99883.25;10295787;28;96744;-76
2023/03/07 20:02:03;;;;;;;14.90;9.18;;;;;;;14.30;69.07;99876.75;10297876;28;97082;-75
2023/03/07 20:07:07;;;;;;;15.13;8.32;;;;;;;14.27;69.84;99893.69;10297067;28;96723;-76
2023/03/07 20:12:11;;;;;;;16.88;7.43;;;;;;;14.32;70.21;99898.69;10301440;28;97080;-76
2023/03/07 20:17:14;;;;;;;13.02;7.45;;;;;;;14.33;70.25;99900.44;10303731;28;97430;-76
2023/03/07 20:22:19;;;;;;;14.65;7.50;;;;;;;14.37;70.59;99896.63;10304096;28;96648;-76
2023/03/07 20:27:23;;;;;;;13.88;7.35;;;;;;;14.49;69.63;99888.78;10303756;28;96532;-76
2023/03/07 20:32:27;;;;;;;18.80;11.67;;;;;;;14.28;70.45;99895.38;10304369;28;97030;-76
2023/03/07 20:37:33;;;;;;;17.60;8.70;;;;;;;14.10;71.40;99882.41;10303466;28;96712;-75
2023/03/07 20:42:37;;;;;;;20.05;8.52;;;;;;;14.22;71.37;99885.19;10302877;28;96784;-75
2023/03/07 20:47:40;;;;;;;17.83;9.40;;;;;;;14.31;71.29;99876.69;10302017;28;96600;-75
2023/03/07 20:52:45;;;;;;;21.65;8.80;;;;;;;14.33;71.32;99884.53;10319916;28;96876;-76
2023/03/07 20:57:48;;;;;;;15.80;7.85;;;;;;;14.40;70.86;99875.28;10302637;28;96677;-76
2023/03/07 21:02:51;;;;;;;13.00;8.25;;;;;;;14.43;71.46;99886.53;10302904;28;97400;-75
2023/03/07 21:08:08;;;;;;;17.48;9.70;;;;;;;14.29;72.15;99881.22;10302526;28;96657;-76
2023/03/07 21:13:12;;;;;;;22.02;10.40;;;;;;;14.18;73.49;99877.50;10302580;28;96569;-76
2023/03/07 21:18:15;;;;;;;18.58;11.57;;;;;;;14.22;72.55;99866.66;10301078;28;97313;-75
2023/03/07 21:23:20;;;;;;;19.85;12.18;;;;;;;14.06;73.55;99872.94;10308921;28;96744;-75
2023/03/07 21:28:23;;;;;;;24.77;13.73;;;;;;;14.05;73.64;99880.06;10341501;28;96940;-76
2023/03/07 21:33:26;;;;;;;31.48;21.48;;;;;;;13.95;74.34;99876.19;10342298;28;96770;-75
2023/03/07 21:38:32;;;;;;;20.38;11.05;;;;;;;14.05;74.11;99863.31;10341389;28;96750;-75
2023/03/07 21:43:36;;;;;;;17.50;10.05;;;;;;;14.04;74.24;99861.63;10340832;28;96943;-76
2023/03/07 21:48:40;;;;;;;18.58;9.73;;;;;;;14.11;73.73;99853.22;10300757;28;96661;-76
2023/03/07 21:53:44;;;;;;;22.33;11.43;;;;;;;14.14;73.74;99846.91;10329592;28;96769;-75
2023/03/07 21:58:49;;;;;;;20.02;10.98;;;;;;;13.98;74.00;99857.53;10299821;28;96655;-76
2023/03/07 22:03:53;;;;;;;21.77;11.20;;;;;;;14.06;74.15;99851.78;10326719;28;97103;-76
2023/03/07 22:09:00;;;;;;;19.85;9.98;;;;;;;14.14;74.21;99853.03;10341278;28;96671;-75
2023/03/07 22:14:03;;;;;;;18.10;9.80;;;;;;;13.87;75.15;99849.38;10341571;28;96906;-76
2023/03/07 22:19:06;;;;;;;23.00;9.90;;;;;;;13.92;75.20;99849.94;10340386;28;96775;-75
2023/03/07 22:24:12;;;;;;;18.20;10.32;;;;;;;13.94;75.65;99837.47;10340985;28;96887;-75
2023/03/07 22:29:15;;;;;;;18.42;9.88;;;;;;;13.97;75.46;99826.69;10339602;28;96715;-75
2023/03/07 22:34:18;;;;;;;21.20;11.95;;;;;;;13.79;75.87;99834.91;10340544;28;96693;-76
2023/03/07 22:39:23;;;;;;;23.90;9.85;;;;;;;13.79;75.98;99834.91;10300763;28;96830;-76
2023/03/07 22:44:26;;;;;;;;;;;;;;;13.74;76.98;99844.91;10299810;28;96788;-75
2023/03/07 22:49:29;;;;;;;17.77;10.10;;;;;;;13.85;75.80;99838.03;10299344;28;96635;-76
2023/03/07 22:54:38;;;;;;;19.60;10.07;;;;;;;13.89;76.04;99842.19;10322394;28;96844;-76
2023/03/07 22:59:41;;;;;;;19.92;10.02;;;;;;;13.97;76.15;99839.94;10339478;28;96724;-75
2023/03/07 23:04:44;;;;;;;17.42;9.90;;;;;;;13.88;76.70;99818.50;10339515;28;96587;-75
2023/03/07 23:09:49;;;;;;;21.23;13.25;;;;;;;13.94;76.40;99826.03;10338658;28;96768;-76
2023/03/07 23:14:52;;;;;;;22.27;10.00;;;;;;;13.94;76.04;99837.47;10339187;28;96772;-76
2023/03/07 23:19:56;;;;;;;19.33;10.40;;;;;;;13.98;76.54;99836.38;10338365;28;96619;-75
2023/03/07 23:25:01;;;;;;;19.88;11.00;;;;;;;13.93;76.79;99829.63;10338415;28;96761;-76